sensor_id;sensor_type;location;lat;lon;timestamp;P1;durP1;ratioP1;P2;durP2;ratioP2
32228;SDS011;18717;48.034;11.186;2022-10-16T00:01:04;13.13;;;11.00;;
32228;SDS011;18717;48.034;11.186;2022-10-16T00:03:33;13.45;;;12.10;;
32228;SDS011;18717;48.034;11.186;2022-10-16T00:06:01;13.40;;;10.70;;
32228;SDS011;18717;48.034;11.186;2022-10-16T00:08:29;12.50;;;10.20;;
32228;SDS011;18717;48.034;11.186;2022-10-16T00:11:00;11.10;;;10.23;;
32228;SDS011;18717;48.034;11.186;2022-10-16T00:13:28;11.75;;;10.77;;
32228;SDS011;18717;48.034;11.186;2022-10-16T00:15:58;10.48;;;9.70;;
32228;SDS011;18717;48.034;11.186;2022-10-16T00:18:27;11.23;;;10.30;;
32228;SDS011;18717;48.034;11.186;2022-10-16T00:20:55;10.52;;;9.73;;
32228;SDS011;18717;48.034;11.186;2022-10-16T00:23:23;10.32;;;9.48;;
32228;SDS011;18717;48.034;11.186;2022-10-16T00:25:54;10.68;;;9.90;;
32228;SDS011;18717;48.034;11.186;2022-10-16T00:30:50;10.63;;;9.93;;
32228;SDS011;18717;48.034;11.186;2022-10-16T00:33:19;10.27;;;9.48;;
32228;SDS011;18717;48.034;11.186;2022-10-16T00:35:47;11.07;;;10.10;;
32228;SDS011;18717;48.034;11.186;2022-10-16T00:38:16;11.20;;;10.10;;
32228;SDS011;18717;48.034;11.186;2022-10-16T00:40:44;12.63;;;9.98;;
32228;SDS011;18717;48.034;11.186;2022-10-16T00:43:12;11.40;;;10.50;;
32228;SDS011;18717;48.034;11.186;2022-10-16T00:45:41;10.55;;;9.68;;
32228;SDS011;18717;48.034;11.186;2022-10-16T00:48:10;10.50;;;9.57;;
32228;SDS011;18717;48.034;11.186;2022-10-16T00:50:42;11.10;;;10.38;;
32228;SDS011;18717;48.034;11.186;2022-10-16T00:53:10;9.75;;;8.93;;
32228;SDS011;18717;48.034;11.186;2022-10-16T00:55:39;10.25;;;9.43;;
32228;SDS011;18717;48.034;11.186;2022-10-16T00:58:08;10.35;;;9.45;;
32228;SDS011;18717;48.034;11.186;2022-10-16T01:00:35;10.50;;;9.38;;
32228;SDS011;18717;48.034;11.186;2022-10-16T01:05:54;13.00;;;9.95;;
32228;SDS011;18717;48.034;11.186;2022-10-16T01:08:35;9.63;;;9.02;;
32228;SDS011;18717;48.034;11.186;2022-10-16T01:11:11;10.75;;;9.95;;
32228;SDS011;18717;48.034;11.186;2022-10-16T01:13:46;10.13;;;9.52;;
32228;SDS011;18717;48.034;11.186;2022-10-16T01:16:20;10.50;;;9.70;;
32228;SDS011;18717;48.034;11.186;2022-10-16T01:18:54;9.95;;;9.40;;
32228;SDS011;18717;48.034;11.186;2022-10-16T01:21:26;9.85;;;9.25;;
32228;SDS011;18717;48.034;11.186;2022-10-16T01:23:57;10.75;;;9.95;;
32228;SDS011;18717;48.034;11.186;2022-10-16T01:26:36;10.75;;;10.00;;
32228;SDS011;18717;48.034;11.186;2022-10-16T01:29:09;10.57;;;9.82;;
32228;SDS011;18717;48.034;11.186;2022-10-16T01:31:41;16.27;;;9.75;;
32228;SDS011;18717;48.034;11.186;2022-10-16T01:34:12;14.43;;;9.52;;
32228;SDS011;18717;48.034;11.186;2022-10-16T01:36:45;10.45;;;9.55;;
32228;SDS011;18717;48.034;11.186;2022-10-16T01:39:15;12.73;;;10.18;;
32228;SDS011;18717;48.034;11.186;2022-10-16T01:41:49;10.38;;;9.52;;
32228;SDS011;18717;48.034;11.186;2022-10-16T01:44:21;10.40;;;9.70;;
32228;SDS011;18717;48.034;11.186;2022-10-16T01:49:19;9.85;;;9.05;;
32228;SDS011;18717;48.034;11.186;2022-10-16T01:51:48;10.23;;;9.63;;
32228;SDS011;18717;48.034;11.186;2022-10-16T01:54:18;10.15;;;9.63;;
32228;SDS011;18717;48.034;11.186;2022-10-16T01:56:47;10.30;;;9.38;;
32228;SDS011;18717;48.034;11.186;2022-10-16T01:59:16;10.45;;;9.43;;
32228;SDS011;18717;48.034;11.186;2022-10-16T02:01:50;9.75;;;9.15;;
32228;SDS011;18717;48.034;11.186;2022-10-16T02:04:20;10.82;;;9.93;;
32228;SDS011;18717;48.034;11.186;2022-10-16T02:06:49;10.65;;;9.60;;
32228;SDS011;18717;48.034;11.186;2022-10-16T02:09:17;11.05;;;10.23;;
32228;SDS011;18717;48.034;11.186;2022-10-16T02:11:45;10.50;;;9.77;;
32228;SDS011;18717;48.034;11.186;2022-10-16T02:14:12;11.00;;;10.27;;
32228;SDS011;18717;48.034;11.186;2022-10-16T02:16:41;10.48;;;9.40;;
32228;SDS011;18717;48.034;11.186;2022-10-16T02:19:11;10.05;;;9.10;;
32228;SDS011;18717;48.034;11.186;2022-10-16T02:21:40;22.70;;;10.10;;
32228;SDS011;18717;48.034;11.186;2022-10-16T02:24:13;10.27;;;9.38;;
32228;SDS011;18717;48.034;11.186;2022-10-16T02:26:45;11.07;;;9.57;;
32228;SDS011;18717;48.034;11.186;2022-10-16T02:29:17;10.65;;;9.52;;
32228;SDS011;18717;48.034;11.186;2022-10-16T02:31:46;10.30;;;9.60;;
32228;SDS011;18717;48.034;11.186;2022-10-16T02:34:18;10.32;;;9.73;;
32228;SDS011;18717;48.034;11.186;2022-10-16T02:36:48;9.95;;;9.07;;
32228;SDS011;18717;48.034;11.186;2022-10-16T02:39:16;10.02;;;9.30;;
32228;SDS011;18717;48.034;11.186;2022-10-16T02:41:45;9.48;;;8.93;;
32228;SDS011;18717;48.034;11.186;2022-10-16T02:44:13;9.63;;;8.75;;
32228;SDS011;18717;48.034;11.186;2022-10-16T02:46:41;9.98;;;9.18;;
32228;SDS011;18717;48.034;11.186;2022-10-16T02:49:08;14.13;;;9.18;;
32228;SDS011;18717;48.034;11.186;2022-10-16T02:51:37;9.68;;;9.00;;
32228;SDS011;18717;48.034;11.186;2022-10-16T02:54:05;9.68;;;9.07;;
32228;SDS011;18717;48.034;11.186;2022-10-16T02:58:39;9.30;;;8.80;;
32228;SDS011;18717;48.034;11.186;2022-10-16T03:01:07;10.18;;;9.38;;
32228;SDS011;18717;48.034;11.186;2022-10-16T03:03:34;10.00;;;9.20;;
32228;SDS011;18717;48.034;11.186;2022-10-16T03:06:02;9.68;;;9.18;;
32228;SDS011;18717;48.034;11.186;2022-10-16T03:08:29;9.77;;;8.98;;
32228;SDS011;18717;48.034;11.186;2022-10-16T03:10:57;10.15;;;9.55;;
32228;SDS011;18717;48.034;11.186;2022-10-16T03:13:24;10.57;;;9.98;;
32228;SDS011;18717;48.034;11.186;2022-10-16T03:15:53;9.90;;;9.23;;
32228;SDS011;18717;48.034;11.186;2022-10-16T03:18:21;11.25;;;10.40;;
32228;SDS011;18717;48.034;11.186;2022-10-16T03:20:48;13.48;;;9.88;;
32228;SDS011;18717;48.034;11.186;2022-10-16T03:23:16;11.65;;;10.52;;
32228;SDS011;18717;48.034;11.186;2022-10-16T03:25:43;11.73;;;10.73;;
32228;SDS011;18717;48.034;11.186;2022-10-16T03:28:13;10.55;;;9.65;;
32228;SDS011;18717;48.034;11.186;2022-10-16T03:30:41;10.13;;;9.25;;
32228;SDS011;18717;48.034;11.186;2022-10-16T03:33:11;11.05;;;8.73;;
32228;SDS011;18717;48.034;11.186;2022-10-16T03:35:39;9.80;;;9.00;;
32228;SDS011;18717;48.034;11.186;2022-10-16T03:38:06;9.98;;;9.20;;
32228;SDS011;18717;48.034;11.186;2022-10-16T03:40:34;9.43;;;8.93;;
32228;SDS011;18717;48.034;11.186;2022-10-16T03:43:01;20.50;;;12.10;;
32228;SDS011;18717;48.034;11.186;2022-10-16T03:45:29;9.68;;;9.13;;
32228;SDS011;18717;48.034;11.186;2022-10-16T03:47:56;9.40;;;8.65;;
32228;SDS011;18717;48.034;11.186;2022-10-16T03:50:25;10.02;;;9.27;;
32228;SDS011;18717;48.034;11.186;2022-10-16T03:52:52;9.57;;;8.80;;
32228;SDS011;18717;48.034;11.186;2022-10-16T03:55:20;9.23;;;8.63;;
32228;SDS011;18717;48.034;11.186;2022-10-16T03:57:47;9.48;;;8.98;;
32228;SDS011;18717;48.034;11.186;2022-10-16T04:00:15;9.70;;;9.10;;
32228;SDS011;18717;48.034;11.186;2022-10-16T04:02:43;9.55;;;8.95;;
32228;SDS011;18717;48.034;11.186;2022-10-16T04:05:11;9.68;;;9.13;;
32228;SDS011;18717;48.034;11.186;2022-10-16T04:07:40;10.88;;;9.15;;
32228;SDS011;18717;48.034;11.186;2022-10-16T04:10:08;9.85;;;9.25;;
32228;SDS011;18717;48.034;11.186;2022-10-16T04:12:35;10.00;;;9.30;;
32228;SDS011;18717;48.034;11.186;2022-10-16T04:15:03;9.95;;;9.10;;
32228;SDS011;18717;48.034;11.186;2022-10-16T04:17:30;9.52;;;8.73;;
32228;SDS011;18717;48.034;11.186;2022-10-16T04:19:58;10.35;;;9.80;;
32228;SDS011;18717;48.034;11.186;2022-10-16T04:22:25;10.07;;;9.40;;
32228;SDS011;18717;48.034;11.186;2022-10-16T04:24:59;9.75;;;9.15;;
32228;SDS011;18717;48.034;11.186;2022-10-16T04:27:26;9.52;;;8.85;;
32228;SDS011;18717;48.034;11.186;2022-10-16T04:29:55;10.48;;;9.55;;
32228;SDS011;18717;48.034;11.186;2022-10-16T04:32:22;9.40;;;8.90;;
32228;SDS011;18717;48.034;11.186;2022-10-16T04:34:50;9.10;;;8.65;;
32228;SDS011;18717;48.034;11.186;2022-10-16T04:37:17;9.30;;;8.80;;
32228;SDS011;18717;48.034;11.186;2022-10-16T04:39:44;10.38;;;9.27;;
32228;SDS011;18717;48.034;11.186;2022-10-16T04:42:13;9.75;;;9.15;;
32228;SDS011;18717;48.034;11.186;2022-10-16T04:44:41;9.70;;;9.10;;
32228;SDS011;18717;48.034;11.186;2022-10-16T04:47:08;9.65;;;9.05;;
32228;SDS011;18717;48.034;11.186;2022-10-16T04:49:36;9.82;;;9.23;;
32228;SDS011;18717;48.034;11.186;2022-10-16T04:52:03;10.52;;;9.23;;
32228;SDS011;18717;48.034;11.186;2022-10-16T04:54:31;9.98;;;9.48;;
32228;SDS011;18717;48.034;11.186;2022-10-16T04:56:58;10.10;;;9.30;;
32228;SDS011;18717;48.034;11.186;2022-10-16T04:59:27;9.55;;;9.05;;
32228;SDS011;18717;48.034;11.186;2022-10-16T05:01:55;9.77;;;9.27;;
32228;SDS011;18717;48.034;11.186;2022-10-16T05:04:22;11.02;;;10.32;;
32228;SDS011;18717;48.034;11.186;2022-10-16T05:06:50;10.02;;;9.30;;
32228;SDS011;18717;48.034;11.186;2022-10-16T05:09:17;10.18;;;8.75;;
32228;SDS011;18717;48.034;11.186;2022-10-16T05:11:45;9.48;;;8.73;;
32228;SDS011;18717;48.034;11.186;2022-10-16T05:14:12;9.48;;;8.98;;
32228;SDS011;18717;48.034;11.186;2022-10-16T05:16:41;10.15;;;9.38;;
32228;SDS011;18717;48.034;11.186;2022-10-16T05:19:09;10.25;;;9.35;;
32228;SDS011;18717;48.034;11.186;2022-10-16T05:21:53;10.15;;;9.45;;
32228;SDS011;18717;48.034;11.186;2022-10-16T05:24:21;9.90;;;9.40;;
32228;SDS011;18717;48.034;11.186;2022-10-16T05:26:49;10.98;;;10.35;;
32228;SDS011;18717;48.034;11.186;2022-10-16T05:29:16;10.27;;;9.60;;
32228;SDS011;18717;48.034;11.186;2022-10-16T05:31:45;9.65;;;9.15;;
32228;SDS011;18717;48.034;11.186;2022-10-16T05:34:13;9.45;;;8.95;;
32228;SDS011;18717;48.034;11.186;2022-10-16T05:36:40;10.68;;;9.70;;
32228;SDS011;18717;48.034;11.186;2022-10-16T05:39:08;10.32;;;9.73;;
32228;SDS011;18717;48.034;11.186;2022-10-16T05:41:35;12.93;;;11.70;;
32228;SDS011;18717;48.034;11.186;2022-10-16T05:44:03;11.57;;;10.73;;
32228;SDS011;18717;48.034;11.186;2022-10-16T05:46:31;11.10;;;10.13;;
32228;SDS011;18717;48.034;11.186;2022-10-16T05:49:00;11.48;;;10.07;;
32228;SDS011;18717;48.034;11.186;2022-10-16T05:51:27;10.50;;;9.90;;
32228;SDS011;18717;48.034;11.186;2022-10-16T05:53:55;10.15;;;9.30;;
32228;SDS011;18717;48.034;11.186;2022-10-16T05:56:23;10.57;;;9.77;;
32228;SDS011;18717;48.034;11.186;2022-10-16T05:58:50;9.85;;;9.25;;
32228;SDS011;18717;48.034;11.186;2022-10-16T06:01:18;10.43;;;9.55;;
32228;SDS011;18717;48.034;11.186;2022-10-16T06:03:47;9.80;;;9.25;;
32228;SDS011;18717;48.034;11.186;2022-10-16T06:06:16;10.60;;;9.98;;
32228;SDS011;18717;48.034;11.186;2022-10-16T06:08:44;10.48;;;9.75;;
32228;SDS011;18717;48.034;11.186;2022-10-16T06:11:13;14.82;;;9.93;;
32228;SDS011;18717;48.034;11.186;2022-10-16T06:13:41;12.07;;;9.35;;
32228;SDS011;18717;48.034;11.186;2022-10-16T06:16:09;10.43;;;9.57;;
32228;SDS011;18717;48.034;11.186;2022-10-16T06:18:37;11.98;;;11.05;;
32228;SDS011;18717;48.034;11.186;2022-10-16T06:21:06;10.82;;;9.90;;
32228;SDS011;18717;48.034;11.186;2022-10-16T06:23:35;11.85;;;11.05;;
32228;SDS011;18717;48.034;11.186;2022-10-16T06:26:04;11.18;;;10.23;;
32228;SDS011;18717;48.034;11.186;2022-10-16T06:28:31;10.70;;;9.93;;
32228;SDS011;18717;48.034;11.186;2022-10-16T06:30:59;12.02;;;11.13;;
32228;SDS011;18717;48.034;11.186;2022-10-16T06:33:32;10.45;;;9.85;;
32228;SDS011;18717;48.034;11.186;2022-10-16T06:36:00;11.18;;;10.20;;
32228;SDS011;18717;48.034;11.186;2022-10-16T06:38:28;11.77;;;10.43;;
32228;SDS011;18717;48.034;11.186;2022-10-16T06:40:57;11.38;;;10.38;;
32228;SDS011;18717;48.034;11.186;2022-10-16T06:43:25;10.07;;;9.48;;
32228;SDS011;18717;48.034;11.186;2022-10-16T06:45:53;10.52;;;9.77;;
32228;SDS011;18717;48.034;11.186;2022-10-16T06:48:20;10.27;;;9.38;;
32228;SDS011;18717;48.034;11.186;2022-10-16T06:50:55;10.48;;;9.65;;
32228;SDS011;18717;48.034;11.186;2022-10-16T06:53:22;11.02;;;9.95;;
32228;SDS011;18717;48.034;11.186;2022-10-16T06:55:50;10.60;;;9.95;;
32228;SDS011;18717;48.034;11.186;2022-10-16T06:58:19;10.55;;;9.95;;
32228;SDS011;18717;48.034;11.186;2022-10-16T07:00:47;10.30;;;9.40;;
32228;SDS011;18717;48.034;11.186;2022-10-16T07:03:14;11.13;;;10.50;;
32228;SDS011;18717;48.034;11.186;2022-10-16T07:05:42;10.95;;;10.25;;
32228;SDS011;18717;48.034;11.186;2022-10-16T07:08:09;10.93;;;10.07;;
32228;SDS011;18717;48.034;11.186;2022-10-16T07:10:37;10.90;;;10.02;;
32228;SDS011;18717;48.034;11.186;2022-10-16T07:13:04;11.13;;;10.30;;
32228;SDS011;18717;48.034;11.186;2022-10-16T07:15:35;10.85;;;10.20;;
32228;SDS011;18717;48.034;11.186;2022-10-16T07:18:02;10.85;;;10.10;;
32228;SDS011;18717;48.034;11.186;2022-10-16T07:20:30;12.38;;;10.18;;
32228;SDS011;18717;48.034;11.186;2022-10-16T07:22:57;10.80;;;10.02;;
32228;SDS011;18717;48.034;11.186;2022-10-16T07:25:24;11.18;;;10.30;;
32228;SDS011;18717;48.034;11.186;2022-10-16T07:27:52;10.63;;;9.82;;
32228;SDS011;18717;48.034;11.186;2022-10-16T07:30:22;11.10;;;10.27;;
32228;SDS011;18717;48.034;11.186;2022-10-16T07:32:51;12.07;;;10.80;;
32228;SDS011;18717;48.034;11.186;2022-10-16T07:35:19;10.80;;;10.20;;
32228;SDS011;18717;48.034;11.186;2022-10-16T07:37:46;11.35;;;10.27;;
32228;SDS011;18717;48.034;11.186;2022-10-16T07:40:14;11.77;;;11.05;;
32228;SDS011;18717;48.034;11.186;2022-10-16T07:42:41;11.68;;;10.95;;
32228;SDS011;18717;48.034;11.186;2022-10-16T07:45:09;11.52;;;10.52;;
32228;SDS011;18717;48.034;11.186;2022-10-16T07:47:36;11.50;;;10.60;;
32228;SDS011;18717;48.034;11.186;2022-10-16T07:50:06;11.20;;;10.35;;
32228;SDS011;18717;48.034;11.186;2022-10-16T07:52:33;11.20;;;10.50;;
32228;SDS011;18717;48.034;11.186;2022-10-16T07:55:01;11.40;;;10.52;;
32228;SDS011;18717;48.034;11.186;2022-10-16T07:57:29;11.55;;;10.80;;
32228;SDS011;18717;48.034;11.186;2022-10-16T07:59:56;11.68;;;11.07;;
32228;SDS011;18717;48.034;11.186;2022-10-16T08:02:24;11.52;;;10.73;;
32228;SDS011;18717;48.034;11.186;2022-10-16T08:04:51;11.55;;;10.77;;
32228;SDS011;18717;48.034;11.186;2022-10-16T08:07:20;11.90;;;11.10;;
32228;SDS011;18717;48.034;11.186;2022-10-16T08:09:48;11.95;;;11.05;;
32228;SDS011;18717;48.034;11.186;2022-10-16T08:12:16;11.85;;;10.80;;
32228;SDS011;18717;48.034;11.186;2022-10-16T08:14:43;11.57;;;10.88;;
32228;SDS011;18717;48.034;11.186;2022-10-16T08:17:13;73.47;;;14.07;;
32228;SDS011;18717;48.034;11.186;2022-10-16T08:19:43;12.07;;;11.27;;
32228;SDS011;18717;48.034;11.186;2022-10-16T08:22:11;11.55;;;10.80;;
32228;SDS011;18717;48.034;11.186;2022-10-16T08:24:40;11.38;;;10.68;;
32228;SDS011;18717;48.034;11.186;2022-10-16T08:27:08;10.95;;;10.25;;
32228;SDS011;18717;48.034;11.186;2022-10-16T08:29:36;11.85;;;10.90;;
32228;SDS011;18717;48.034;11.186;2022-10-16T08:32:04;12.82;;;11.65;;
32228;SDS011;18717;48.034;11.186;2022-10-16T08:34:32;12.25;;;11.18;;
32228;SDS011;18717;48.034;11.186;2022-10-16T08:36:59;12.07;;;11.05;;
32228;SDS011;18717;48.034;11.186;2022-10-16T08:39:27;11.57;;;10.50;;
32228;SDS011;18717;48.034;11.186;2022-10-16T08:42:13;11.43;;;10.82;;
32228;SDS011;18717;48.034;11.186;2022-10-16T08:47:33;12.10;;;11.05;;
32228;SDS011;18717;48.034;11.186;2022-10-16T08:50:08;11.68;;;10.77;;
32228;SDS011;18717;48.034;11.186;2022-10-16T08:52:38;12.02;;;11.23;;
32228;SDS011;18717;48.034;11.186;2022-10-16T08:55:06;11.65;;;10.90;;
32228;SDS011;18717;48.034;11.186;2022-10-16T08:57:38;11.73;;;11.02;;
32228;SDS011;18717;48.034;11.186;2022-10-16T09:00:09;12.57;;;11.82;;
32228;SDS011;18717;48.034;11.186;2022-10-16T09:02:40;11.70;;;11.00;;
32228;SDS011;18717;48.034;11.186;2022-10-16T09:05:18;12.30;;;11.50;;
32228;SDS011;18717;48.034;11.186;2022-10-16T09:07:49;11.63;;;11.02;;
32228;SDS011;18717;48.034;11.186;2022-10-16T09:10:23;12.15;;;11.40;;
32228;SDS011;18717;48.034;11.186;2022-10-16T09:12:54;11.23;;;10.73;;
32228;SDS011;18717;48.034;11.186;2022-10-16T09:15:25;12.55;;;11.55;;
32228;SDS011;18717;48.034;11.186;2022-10-16T09:17:56;12.93;;;12.20;;
32228;SDS011;18717;48.034;11.186;2022-10-16T09:20:30;13.07;;;12.10;;
32228;SDS011;18717;48.034;11.186;2022-10-16T09:23:08;12.40;;;11.57;;
32228;SDS011;18717;48.034;11.186;2022-10-16T09:25:37;12.57;;;11.57;;
32228;SDS011;18717;48.034;11.186;2022-10-16T09:28:07;13.38;;;12.25;;
32228;SDS011;18717;48.034;11.186;2022-10-16T09:30:35;12.35;;;11.68;;
32228;SDS011;18717;48.034;11.186;2022-10-16T09:33:04;12.45;;;11.70;;
32228;SDS011;18717;48.034;11.186;2022-10-16T09:35:33;12.50;;;11.70;;
32228;SDS011;18717;48.034;11.186;2022-10-16T09:38:03;11.55;;;10.95;;
32228;SDS011;18717;48.034;11.186;2022-10-16T09:40:31;12.85;;;12.10;;
32228;SDS011;18717;48.034;11.186;2022-10-16T09:43:02;13.25;;;11.98;;
32228;SDS011;18717;48.034;11.186;2022-10-16T09:45:31;12.50;;;11.70;;
32228;SDS011;18717;48.034;11.186;2022-10-16T09:48:01;12.15;;;11.35;;
32228;SDS011;18717;48.034;11.186;2022-10-16T09:50:28;11.88;;;11.23;;
32228;SDS011;18717;48.034;11.186;2022-10-16T09:53:03;11.95;;;11.35;;
32228;SDS011;18717;48.034;11.186;2022-10-16T09:55:30;12.45;;;11.77;;
32228;SDS011;18717;48.034;11.186;2022-10-16T09:57:58;11.88;;;11.27;;
32228;SDS011;18717;48.034;11.186;2022-10-16T10:00:26;12.75;;;11.95;;
32228;SDS011;18717;48.034;11.186;2022-10-16T10:02:55;12.68;;;11.50;;
32228;SDS011;18717;48.034;11.186;2022-10-16T10:05:23;12.00;;;11.40;;
32228;SDS011;18717;48.034;11.186;2022-10-16T10:07:55;12.75;;;11.95;;
32228;SDS011;18717;48.034;11.186;2022-10-16T10:10:24;12.60;;;11.98;;
32228;SDS011;18717;48.034;11.186;2022-10-16T10:12:52;12.18;;;11.57;;
32228;SDS011;18717;48.034;11.186;2022-10-16T10:15:20;12.77;;;12.15;;
32228;SDS011;18717;48.034;11.186;2022-10-16T10:17:50;12.35;;;11.75;;
32228;SDS011;18717;48.034;11.186;2022-10-16T10:20:23;12.65;;;11.85;;
32228;SDS011;18717;48.034;11.186;2022-10-16T10:22:51;12.45;;;11.45;;
32228;SDS011;18717;48.034;11.186;2022-10-16T10:25:20;13.85;;;13.05;;
32228;SDS011;18717;48.034;11.186;2022-10-16T10:30:37;12.45;;;11.80;;
32228;SDS011;18717;48.034;11.186;2022-10-16T10:33:11;12.75;;;11.93;;
32228;SDS011;18717;48.034;11.186;2022-10-16T10:35:43;11.60;;;11.00;;
32228;SDS011;18717;48.034;11.186;2022-10-16T10:38:16;11.82;;;11.32;;
32228;SDS011;18717;48.034;11.186;2022-10-16T10:40:48;12.00;;;11.40;;
32228;SDS011;18717;48.034;11.186;2022-10-16T10:45:46;12.10;;;11.30;;
32228;SDS011;18717;48.034;11.186;2022-10-16T10:48:17;12.18;;;11.68;;
32228;SDS011;18717;48.034;11.186;2022-10-16T10:50:49;12.38;;;11.68;;
32228;SDS011;18717;48.034;11.186;2022-10-16T10:53:22;13.18;;;12.20;;
32228;SDS011;18717;48.034;11.186;2022-10-16T10:55:53;12.25;;;11.50;;
32228;SDS011;18717;48.034;11.186;2022-10-16T10:58:27;12.63;;;11.93;;
32228;SDS011;18717;48.034;11.186;2022-10-16T11:01:01;12.77;;;12.07;;
32228;SDS011;18717;48.034;11.186;2022-10-16T11:03:35;12.52;;;11.77;;
32228;SDS011;18717;48.034;11.186;2022-10-16T11:06:06;12.38;;;11.75;;
32228;SDS011;18717;48.034;11.186;2022-10-16T11:08:36;12.23;;;11.63;;
32228;SDS011;18717;48.034;11.186;2022-10-16T11:11:06;11.98;;;11.38;;
32228;SDS011;18717;48.034;11.186;2022-10-16T11:13:37;12.20;;;11.50;;
32228;SDS011;18717;48.034;11.186;2022-10-16T11:16:08;12.10;;;11.60;;
32228;SDS011;18717;48.034;11.186;2022-10-16T11:18:44;13.18;;;12.25;;
32228;SDS011;18717;48.034;11.186;2022-10-16T11:21:14;12.18;;;11.57;;
32228;SDS011;18717;48.034;11.186;2022-10-16T11:23:44;12.43;;;11.93;;
32228;SDS011;18717;48.034;11.186;2022-10-16T11:26:15;12.70;;;12.10;;
32228;SDS011;18717;48.034;11.186;2022-10-16T11:28:45;13.02;;;12.35;;
32228;SDS011;18717;48.034;11.186;2022-10-16T11:31:16;12.50;;;11.95;;
32228;SDS011;18717;48.034;11.186;2022-10-16T11:33:45;13.15;;;12.07;;
32228;SDS011;18717;48.034;11.186;2022-10-16T11:36:16;12.60;;;11.88;;
32228;SDS011;18717;48.034;11.186;2022-10-16T11:38:48;12.93;;;12.23;;
32228;SDS011;18717;48.034;11.186;2022-10-16T11:41:20;12.27;;;11.77;;
32228;SDS011;18717;48.034;11.186;2022-10-16T11:43:52;12.27;;;11.77;;
32228;SDS011;18717;48.034;11.186;2022-10-16T11:46:24;12.15;;;11.65;;
32228;SDS011;18717;48.034;11.186;2022-10-16T11:48:54;12.30;;;11.40;;
32228;SDS011;18717;48.034;11.186;2022-10-16T11:51:27;12.45;;;11.85;;
32228;SDS011;18717;48.034;11.186;2022-10-16T11:53:59;12.18;;;11.68;;
32228;SDS011;18717;48.034;11.186;2022-10-16T11:56:30;12.80;;;11.93;;
32228;SDS011;18717;48.034;11.186;2022-10-16T11:58:59;12.10;;;11.57;;
32228;SDS011;18717;48.034;11.186;2022-10-16T12:01:30;11.63;;;11.13;;
32228;SDS011;18717;48.034;11.186;2022-10-16T12:04:04;12.77;;;12.18;;
32228;SDS011;18717;48.034;11.186;2022-10-16T12:06:35;12.48;;;11.98;;
32228;SDS011;18717;48.034;11.186;2022-10-16T12:09:04;12.40;;;11.90;;
32228;SDS011;18717;48.034;11.186;2022-10-16T12:11:33;12.80;;;12.20;;
32228;SDS011;18717;48.034;11.186;2022-10-16T12:14:18;12.07;;;11.52;;
32228;SDS011;18717;48.034;11.186;2022-10-16T12:16:52;12.10;;;11.60;;
32228;SDS011;18717;48.034;11.186;2022-10-16T12:19:21;12.00;;;11.50;;
32228;SDS011;18717;48.034;11.186;2022-10-16T12:21:51;12.70;;;12.07;;
32228;SDS011;18717;48.034;11.186;2022-10-16T12:24:20;12.30;;;11.60;;
32228;SDS011;18717;48.034;11.186;2022-10-16T12:26:48;11.75;;;11.25;;
32228;SDS011;18717;48.034;11.186;2022-10-16T12:29:29;12.18;;;11.68;;
32228;SDS011;18717;48.034;11.186;2022-10-16T12:31:58;13.32;;;12.45;;
32228;SDS011;18717;48.034;11.186;2022-10-16T12:34:27;12.95;;;12.45;;
32228;SDS011;18717;48.034;11.186;2022-10-16T12:36:56;12.90;;;12.32;;
32228;SDS011;18717;48.034;11.186;2022-10-16T12:39:34;12.35;;;11.75;;
32228;SDS011;18717;48.034;11.186;2022-10-16T12:42:03;12.50;;;11.90;;
32228;SDS011;18717;48.034;11.186;2022-10-16T12:44:32;12.57;;;12.07;;
32228;SDS011;18717;48.034;11.186;2022-10-16T12:47:00;12.45;;;11.95;;
32228;SDS011;18717;48.034;11.186;2022-10-16T12:49:30;12.57;;;11.88;;
32228;SDS011;18717;48.034;11.186;2022-10-16T12:51:59;12.63;;;12.10;;
32228;SDS011;18717;48.034;11.186;2022-10-16T12:54:27;12.60;;;11.85;;
32228;SDS011;18717;48.034;11.186;2022-10-16T12:57:03;12.65;;;12.05;;
32228;SDS011;18717;48.034;11.186;2022-10-16T12:59:35;12.80;;;11.95;;
32228;SDS011;18717;48.034;11.186;2022-10-16T13:02:18;12.45;;;11.93;;
32228;SDS011;18717;48.034;11.186;2022-10-16T13:04:55;12.93;;;12.32;;
32228;SDS011;18717;48.034;11.186;2022-10-16T13:07:37;11.50;;;11.00;;
32228;SDS011;18717;48.034;11.186;2022-10-16T13:10:10;12.73;;;12.23;;
32228;SDS011;18717;48.034;11.186;2022-10-16T13:12:58;12.82;;;12.32;;
32228;SDS011;18717;48.034;11.186;2022-10-16T13:15:32;12.13;;;11.63;;
32228;SDS011;18717;48.034;11.186;2022-10-16T13:18:04;11.85;;;11.35;;
32228;SDS011;18717;48.034;11.186;2022-10-16T13:20:35;11.63;;;11.02;;
32228;SDS011;18717;48.034;11.186;2022-10-16T13:23:08;12.52;;;11.93;;
32228;SDS011;18717;48.034;11.186;2022-10-16T13:25:40;11.77;;;11.35;;
32228;SDS011;18717;48.034;11.186;2022-10-16T13:28:10;12.23;;;11.63;;
32228;SDS011;18717;48.034;11.186;2022-10-16T13:30:39;12.88;;;12.27;;
32228;SDS011;18717;48.034;11.186;2022-10-16T13:33:15;13.07;;;12.48;;
32228;SDS011;18717;48.034;11.186;2022-10-16T13:35:47;11.70;;;11.20;;
32228;SDS011;18717;48.034;11.186;2022-10-16T13:38:17;12.32;;;11.60;;
32228;SDS011;18717;48.034;11.186;2022-10-16T13:40:52;12.18;;;11.57;;
32228;SDS011;18717;48.034;11.186;2022-10-16T13:43:22;12.45;;;11.77;;
32228;SDS011;18717;48.034;11.186;2022-10-16T13:45:58;13.55;;;12.70;;
32228;SDS011;18717;48.034;11.186;2022-10-16T13:48:26;12.98;;;12.02;;
32228;SDS011;18717;48.034;11.186;2022-10-16T13:51:04;12.35;;;11.68;;
32228;SDS011;18717;48.034;11.186;2022-10-16T13:53:34;12.15;;;11.55;;
32228;SDS011;18717;48.034;11.186;2022-10-16T14:25:55;12.52;;;12.02;;
32228;SDS011;18717;48.034;11.186;2022-10-16T15:54:27;13.20;;;12.60;;
32228;SDS011;18717;48.034;11.186;2022-10-16T15:56:55;14.73;;;13.57;;
32228;SDS011;18717;48.034;11.186;2022-10-16T15:59:23;13.63;;;12.95;;
32228;SDS011;18717;48.034;11.186;2022-10-16T16:01:51;13.07;;;12.48;;
32228;SDS011;18717;48.034;11.186;2022-10-16T16:04:19;12.68;;;11.88;;
32228;SDS011;18717;48.034;11.186;2022-10-16T16:07:07;13.63;;;12.82;;
32228;SDS011;18717;48.034;11.186;2022-10-16T16:09:37;13.45;;;12.63;;
32228;SDS011;18717;48.034;11.186;2022-10-16T16:12:04;12.75;;;12.15;;
32228;SDS011;18717;48.034;11.186;2022-10-16T16:14:32;13.80;;;12.85;;
32228;SDS011;18717;48.034;11.186;2022-10-16T16:17:35;13.35;;;12.65;;
32228;SDS011;18717;48.034;11.186;2022-10-16T16:48:38;13.18;;;12.25;;
32228;SDS011;18717;48.034;11.186;2022-10-16T16:51:08;13.13;;;12.43;;
32228;SDS011;18717;48.034;11.186;2022-10-16T16:54:03;12.93;;;12.18;;
32228;SDS011;18717;48.034;11.186;2022-10-16T16:56:34;13.88;;;13.13;;
32228;SDS011;18717;48.034;11.186;2022-10-16T16:59:04;14.07;;;13.25;;
32228;SDS011;18717;48.034;11.186;2022-10-16T17:01:32;14.25;;;13.35;;
32228;SDS011;18717;48.034;11.186;2022-10-16T17:11:58;15.52;;;13.90;;
32228;SDS011;18717;48.034;11.186;2022-10-16T17:14:29;14.10;;;13.20;;
32228;SDS011;18717;48.034;11.186;2022-10-16T17:16:58;14.27;;;13.27;;
32228;SDS011;18717;48.034;11.186;2022-10-16T17:19:28;14.75;;;13.60;;
32228;SDS011;18717;48.034;11.186;2022-10-16T17:21:56;15.05;;;13.60;;